Time;durP1;ratioP1;P1;durP2;ratioP2;P2;SDS_P1;SDS_P2;PMS_P1;PMS_P2;Temp;Humidity;BMP_temperature;BMP_pressure;BME280_temperature;BME280_humidity;BME280_pressure;Samples;Min_cycle;Max_cycle;Signal;HPM_P1;HPM_P2
2022/08/04 00:04:35;;;;;;;;;;;;;;;25.90;45.99;95638.69;10237816;28;1904;-69
2022/08/04 00:09:53;;;;;;;;;;;;;;;25.90;46.08;95636.03;10233781;28;1746;-69
2022/08/04 00:14:54;;;;;;;;;;;;;;;25.90;45.99;95630.72;10232228;28;1966;-69
2022/08/04 00:19:55;;;;;;;;;;;;;;;25.91;45.98;95640.22;10230216;29;1814;-69
2022/08/04 00:24:57;;;;;;;;;;;;;;;25.90;45.94;95638.69;10238025;29;1782;-69
2022/08/04 00:29:57;;;;;;;;;;;;;;;25.89;45.88;95635.22;10260780;28;1711;-69
2022/08/04 00:34:58;;;;;;;;;;;;;;;25.89;46.17;95627.25;10232301;28;1977;-69
2022/08/04 00:39:58;;;;;;;;;;;;;;;25.90;46.07;95634.16;10233061;28;1925;-69
2022/08/04 00:45:01;;;;;;;;;;;;;;;25.90;45.79;95628.06;10233434;28;2019;-69
2022/08/04 00:50:08;;;;;;;;;;;;;;;25.89;45.74;95631.78;10236475;28;2016;-69
2022/08/04 00:55:16;;;;;;;;;;;;;;;25.90;45.96;95634.16;10241448;28;1990;-69
2022/08/04 01:00:19;;;;;;;;;;;;;;;25.90;45.99;95634.16;10256350;28;1898;-69
2022/08/04 01:05:21;;;;;;;;;;;;;;;25.90;46.00;95626.19;10242554;28;2097;-69
2022/08/04 01:10:21;;;;;;;;;;;;;;;25.91;45.80;95632.25;10240033;28;1910;-69
2022/08/04 01:15:39;;;;;;;;;;;;;;;25.90;46.07;95633.38;10238914;28;2054;-69
2022/08/04 01:20:57;;;;;;;;;;;;;;;25.90;45.82;95633.38;10239263;28;1983;-69
2022/08/04 01:26:02;;;;;;;;;;;;;;;25.90;45.88;95633.38;10243601;28;1945;-69
2022/08/04 01:31:17;;;;;;;;;;;;;;;25.90;46.08;95639.47;10232058;28;1983;-69
2022/08/04 01:36:39;;;;;;;;;;;;;;;25.89;46.02;95635.22;10251991;28;2073;-69
2022/08/04 01:42:00;;;;;;;;;;;;;;;25.90;45.80;95633.38;10237884;28;1981;-69
2022/08/04 01:47:00;;;;;;;;;;;;;;;25.90;46.00;95630.72;10255807;28;2066;-69
2022/08/04 01:52:01;;;;;;;;;;;;;;;25.91;45.82;95632.25;10241747;28;1918;-69
2022/08/04 01:57:01;;;;;;;;;;;;;;;25.89;45.78;95635.22;10239915;28;1968;-69
2022/08/04 02:02:01;;;;;;;;;;;;;;;25.90;45.86;95633.38;10241637;28;1901;-68
2022/08/04 02:07:16;;;;;;;;;;;;;;;25.89;45.87;95632.56;10240353;28;1992;-69
2022/08/04 02:12:23;;;;;;;;;;;;;;;25.89;45.82;95632.56;10235221;28;1984;-69
2022/08/04 02:17:30;;;;;;;;;;;;;;;25.89;45.67;95631.78;10239303;28;1972;-69
2022/08/04 02:22:31;;;;;;;;;;;;;;;25.89;45.67;95635.22;10238850;28;1925;-69
2022/08/04 02:27:36;;;;;;;;;;;;;;;25.89;45.69;95631.78;10231361;28;1985;-68
2022/08/04 02:32:40;;;;;;;;;;;;;;;25.89;45.74;95631.78;10236252;28;1952;-69
2022/08/04 02:37:47;;;;;;;;;;;;;;;25.90;45.84;95626.19;10235277;28;1933;-69
2022/08/04 02:42:47;;;;;;;;;;;;;;;25.89;45.72;95627.25;10237388;28;1994;-69
2022/08/04 02:47:48;;;;;;;;;;;;;;;25.89;45.68;95624.59;10235542;28;1984;-69
2022/08/04 02:52:49;;;;;;;;;;;;;;;25.88;45.72;95623.06;10222958;28;2004;-69
2022/08/04 02:57:50;;;;;;;;;;;;;;;25.90;45.50;95626.19;10237547;28;2020;-69
2022/08/04 03:02:59;;;;;;;;;;;;;;;25.89;45.55;95619.28;10240310;28;2108;-69
2022/08/04 03:08:02;;;;;;;;;;;;;;;25.90;45.50;95620.09;10234820;29;1786;-68
2022/08/04 03:13:22;;;;;;;;;;;;;;;25.89;45.51;95607.88;10235703;28;2305;-68
2022/08/04 03:18:41;;;;;;;;;;;;;;;25.90;45.53;95617.44;10238005;28;2016;-69
2022/08/04 03:24:00;;;;;;;;;;;;;;;25.89;45.61;95615.84;10235432;29;1977;-69
2022/08/04 03:29:20;;;;;;;;;;;;;;;25.89;45.45;95610.53;10235902;29;2070;-68
2022/08/04 03:34:27;;;;;;;;;;;;;;;25.89;45.49;95615.84;10234996;28;2005;-69
2022/08/04 03:39:47;;;;;;;;;;;;;;;25.90;45.54;95620.09;10234669;28;1958;-69
2022/08/04 03:44:53;;;;;;;;;;;;;;;25.89;45.65;95619.28;10233282;28;1961;-69
2022/08/04 03:49:56;;;;;;;;;;;;;;;25.90;45.51;95617.44;10237006;28;1862;-69
2022/08/04 03:55:15;;;;;;;;;;;;;;;25.89;45.38;95615.84;10234479;28;2014;-68
2022/08/04 04:00:17;;;;;;;;;;;;;;;25.90;45.52;95622.75;10247723;28;2022;-68
2022/08/04 04:05:36;;;;;;;;;;;;;;;25.90;45.53;95612.13;10231812;29;2033;-71
2022/08/04 04:10:39;;;;;;;;;;;;;;;25.90;45.39;95620.09;10229927;28;1901;-69
2022/08/04 04:15:56;;;;;;;;;;;;;;;25.89;45.37;95621.16;10233994;28;1984;-68
2022/08/04 04:20:58;;;;;;;;;;;;;;;25.90;45.36;95623.53;10233781;28;1922;-69
2022/08/04 04:26:05;;;;;;;;;;;;;;;25.89;45.26;95637.88;10229827;28;1966;-69
2022/08/04 04:31:24;;;;;;;;;;;;;;;25.89;45.31;95626.47;10239158;28;2113;-69
2022/08/04 04:36:31;;;;;;;;;;;;;;;25.89;45.18;95626.47;10252366;28;2046;-69
2022/08/04 04:41:51;;;;;;;;;;;;;;;25.90;45.33;95628.06;10240579;28;1925;-69
2022/08/04 04:47:04;;;;;;;;;;;;;;;25.90;45.38;95630.72;10240429;28;1946;-69
2022/08/04 04:52:05;;;;;;;;;;;;;;;25.90;45.23;95644.00;10257846;28;2384;-69
2022/08/04 04:57:08;;;;;;;;;;;;;;;25.90;45.27;95644.00;10241805;28;1964;-69
2022/08/04 05:02:20;;;;;;;;;;;;;;;25.90;45.27;95646.66;10235925;28;2006;-69
2022/08/04 05:07:27;;;;;;;;;;;;;;;25.91;45.31;95645.53;10239724;28;2010;-69
2022/08/04 05:12:41;;;;;;;;;;;;;;;25.90;45.36;95650.09;10241371;28;1927;-69
2022/08/04 05:17:42;;;;;;;;;;;;;;;25.91;45.34;95650.84;10239937;28;2026;-69
2022/08/04 05:23:03;;;;;;;;;;;;;;;25.90;45.31;95647.44;10234182;28;2018;-69
2022/08/04 05:28:11;;;;;;;;;;;;;;;25.92;45.37;95644.47;10237795;28;1969;-69
2022/08/04 05:33:12;;;;;;;;;;;;;;;25.93;45.21;95640.69;10243081;28;2100;-69
2022/08/04 05:38:13;;;;;;;;;;;;;;;25.91;45.38;95642.88;10253101;28;1992;-69
2022/08/04 05:43:13;;;;;;;;;;;;;;;25.92;45.18;95642.59;10241177;28;1952;-69
2022/08/04 05:48:14;;;;;;;;;;;;;;;25.93;45.35;95648.66;10241137;28;2065;-69
2022/08/04 05:53:14;;;;;;;;;;;;;;;25.92;45.31;95644.47;10243904;28;2314;-69
2022/08/04 05:58:15;;;;;;;;;;;;;;;25.93;45.42;95640.69;10236993;28;2002;-69
2022/08/04 06:03:16;;;;;;;;;;;;;;;25.93;45.45;95646.78;10237237;28;1990;-68
2022/08/04 06:08:16;;;;;;;;;;;;;;;25.94;45.52;95650.25;10240527;28;2025;-69
2022/08/04 06:13:18;;;;;;;;;;;;;;;25.95;45.67;95643.81;10238434;28;2017;-69
2022/08/04 06:18:19;;;;;;;;;;;;;;;25.95;45.62;95643.81;10237091;28;2029;-69
2022/08/04 06:23:19;;;;;;;;;;;;;;;25.95;45.90;95646.47;10252870;28;1834;-69
2022/08/04 06:28:20;;;;;;;;;;;;;;;25.95;45.82;95649.94;10238420;28;2014;-69
2022/08/04 06:33:32;;;;;;;;;;;;;;;25.95;45.64;95643.81;10238388;28;1954;-69
2022/08/04 06:38:36;;;;;;;;;;;;;;;25.95;45.77;95641.97;10239404;28;1981;-68
2022/08/04 06:43:37;;;;;;;;;;;;;;;25.95;45.83;95646.47;10246142;28;2267;-69
2022/08/04 06:48:38;;;;;;;;;;;;;;;25.96;46.01;95643.53;10233088;28;1962;-69
2022/08/04 06:53:39;;;;;;;;;;;;;;;25.96;45.88;95650.72;10234710;28;2010;-68
2022/08/04 06:58:39;;;;;;;;;;;;;;;25.97;45.88;95652.25;10236644;28;2366;-69
2022/08/04 07:03:40;;;;;;;;;;;;;;;25.96;45.94;95648.06;10237226;28;1909;-69
2022/08/04 07:08:40;;;;;;;;;;;;;;;25.95;45.72;95641.97;10238310;28;2013;-69
2022/08/04 07:13:42;;;;;;;;;;;;;;;25.96;45.88;95653.38;10235123;28;1987;-69
2022/08/04 07:18:42;;;;;;;;;;;;;;;25.97;45.82;95649.59;10239780;28;1989;-69
2022/08/04 07:23:42;;;;;;;;;;;;;;;25.96;45.77;95648.84;10238503;28;2022;-69
2022/08/04 07:28:43;;;;;;;;;;;;;;;25.96;45.82;95648.84;10230892;28;2057;-69
2022/08/04 07:33:43;;;;;;;;;;;;;;;25.96;45.69;95654.16;10232133;28;1988;-69
2022/08/04 07:38:44;;;;;;;;;;;;;;;25.97;45.77;95660.22;10216732;29;1992;-68
2022/08/04 07:43:44;;;;;;;;;;;;;;;25.97;45.87;95660.22;10228546;28;1961;-69
2022/08/04 07:48:44;;;;;;;;;;;;;;;25.98;45.81;95656.50;10234010;28;1982;-69
2022/08/04 07:53:45;;;;;;;;;;;;;;;25.98;45.74;95653.84;10234632;28;1982;-68
2022/08/04 07:58:46;;;;;;;;;;;;;;;25.98;45.59;95646.66;10252236;28;2028;-69
2022/08/04 08:03:46;;;;;;;;;;;;;;;25.98;45.82;95643.22;10245826;28;1996;-69
2022/08/04 08:08:47;;;;;;;;;;;;;;;25.98;45.77;95651.97;10246847;28;1965;-69
2022/08/04 08:13:48;;;;;;;;;;;;;;;25.98;45.80;95651.97;10225731;28;1960;-69
2022/08/04 08:18:48;;;;;;;;;;;;;;;25.99;45.79;95652.75;10242863;28;2010;-69
2022/08/04 08:23:49;;;;;;;;;;;;;;;25.99;45.80;95647.44;10241151;28;1979;-69
2022/08/04 08:28:49;;;;;;;;;;;;;;;25.99;45.81;95650.88;10245612;28;1919;-69
2022/08/04 08:33:50;;;;;;;;;;;;;;;26.02;45.89;95652.13;10247172;28;1953;-69
2022/08/04 08:38:59;;;;;;;;;;;;;;;26.00;45.91;95647.13;10244414;28;2091;-69
2022/08/04 08:44:04;;;;;;;;;;;;;;;26.02;45.82;95646.81;10239283;28;1996;-69
2022/08/04 08:49:13;;;;;;;;;;;;;;;26.01;46.06;95646.03;10238621;28;2347;-69
2022/08/04 08:54:32;;;;;;;;;;;;;;;26.03;45.97;95649.16;10245854;28;1970;-69
2022/08/04 08:59:35;;;;;;;;;;;;;;;26.02;45.93;95652.13;10244927;28;2047;-69
2022/08/04 09:04:39;;;;;;;;;;;;;;;26.03;45.97;95653.72;10244738;28;1987;-69
2022/08/04 09:09:42;;;;;;;;;;;;;;;26.02;45.99;95652.13;10238579;29;1897;-67
2022/08/04 09:14:59;;;;;;;;;;;;;;;26.04;45.76;95649.94;10235718;28;2054;-67
2022/08/04 09:20:01;;;;;;;;;;;;;;;26.04;45.81;95647.28;10253830;28;1977;-67
2022/08/04 09:25:03;;;;;;;;;;;;;;;26.06;45.82;95645.09;10241065;29;1933;-67
2022/08/04 09:30:07;;;;;;;;;;;;;;;26.06;45.97;95639.78;10239329;28;1835;-67
2022/08/04 09:35:10;;;;;;;;;;;;;;;26.07;46.02;95644.03;10241702;29;1953;-67
2022/08/04 09:40:17;;;;;;;;;;;;;;;26.08;46.05;95646.38;10236183;28;1952;-67
2022/08/04 09:45:21;;;;;;;;;;;;;;;26.08;45.95;95646.38;10222004;28;1957;-67
2022/08/04 09:50:37;;;;;;;;;;;;;;;26.09;46.05;95641.88;10231985;28;1992;-67
2022/08/04 09:55:44;;;;;;;;;;;;;;;26.09;45.90;95636.56;10241676;28;2017;-67
2022/08/04 10:00:46;;;;;;;;;;;;;;;26.10;45.92;95640.75;10241520;28;1978;-67
2022/08/04 10:05:49;;;;;;;;;;;;;;;26.11;45.94;95637.03;10234262;28;2034;-67
2022/08/04 10:10:55;;;;;;;;;;;;;;;26.12;45.99;95630.59;10239400;28;1992;-67
2022/08/04 10:16:14;;;;;;;;;;;;;;;26.13;45.93;95627.63;10259229;28;1931;-67
2022/08/04 10:21:15;;;;;;;;;;;;;;;26.14;46.02;95623.09;10238536;29;1957;-67
2022/08/04 10:26:19;;;;;;;;;;;;;;;26.15;46.03;95624.69;10241066;28;1939;-67
2022/08/04 10:31:27;;;;;;;;;;;;;;;26.14;46.07;95623.91;10241000;28;1940;-67
2022/08/04 10:36:29;;;;;;;;;;;;;;;26.16;45.97;95616.38;10240943;28;2015;-68
2022/08/04 10:41:48;;;;;;;;;;;;;;;26.17;45.98;95609.22;10237348;28;1955;-68
2022/08/04 10:46:59;;;;;;;;;;;;;;;26.18;45.95;95605.44;10249433;28;1946;-68
2022/08/04 10:52:02;;;;;;;;;;;;;;;26.19;46.03;95604.38;10240761;28;1965;-68
2022/08/04 10:57:07;;;;;;;;;;;;;;;26.19;46.16;95609.69;10240786;28;1970;-68
2022/08/04 11:02:23;;;;;;;;;;;;;;;26.20;46.01;95605.91;10230778;28;2195;-68
2022/08/04 11:07:23;;;;;;;;;;;;;;;26.21;46.13;95602.19;10236638;28;2036;-68
2022/08/04 11:12:24;;;;;;;;;;;;;;;26.22;46.12;95604.50;10252183;28;1974;-68
2022/08/04 11:17:25;;;;;;;;;;;;;;;26.22;46.07;95599.19;10249358;28;2034;-68
2022/08/04 11:22:27;;;;;;;;;;;;;;;26.23;46.02;95594.66;10235514;28;2045;-68
2022/08/04 11:27:46;;;;;;;;;;;;;;;26.25;46.12;95597.81;10237723;28;1972;-68
2022/08/04 11:32:53;;;;;;;;;;;;;;;26.25;46.09;95587.97;10236017;28;2262;-68
2022/08/04 11:38:01;;;;;;;;;;;;;;;26.26;46.00;95597.47;10239549;28;1933;-68
2022/08/04 11:43:03;;;;;;;;;;;;;;;26.26;46.05;95594.81;10237252;28;1978;-68
2022/08/04 11:48:15;;;;;;;;;;;;;;;26.26;45.88;95594.81;10237474;28;2202;-67
2022/08/04 11:53:18;;;;;;;;;;;;;;;26.27;45.99;95596.41;10233534;28;1958;-68
2022/08/04 11:58:21;;;;;;;;;;;;;;;26.28;46.00;95591.84;10220650;28;2024;-68
2022/08/04 12:03:40;;;;;;;;;;;;;;;26.29;45.86;95591.56;10235315;28;1870;-68
2022/08/04 12:08:46;;;;;;;;;;;;;;;26.28;46.03;95597.16;10235143;28;1905;-68
2022/08/04 12:13:49;;;;;;;;;;;;;;;26.28;46.00;95589.97;10236276;28;2136;-67
2022/08/04 12:18:51;;;;;;;;;;;;;;;26.29;45.91;95588.91;10220784;29;1948;-67
2022/08/04 12:23:52;;;;;;;;;;;;;;;26.32;45.91;95582.16;10236972;28;2176;-67
2022/08/04 12:28:56;;;;;;;;;;;;;;;26.32;46.01;95582.16;10238559;28;2156;-67
2022/08/04 12:33:58;;;;;;;;;;;;;;;26.33;46.09;95581.06;10230066;28;2223;-67
2022/08/04 12:39:00;;;;;;;;;;;;;;;26.34;46.08;95585.28;10234111;28;1915;-67
2022/08/04 12:44:05;;;;;;;;;;;;;;;26.33;46.07;95579.19;10248352;28;1905;-68
2022/08/04 12:49:05;;;;;;;;;;;;;;;26.32;45.96;95582.16;10236922;28;2168;-67
2022/08/04 12:54:06;;;;;;;;;;;;;;;26.35;46.02;95578.88;10242949;28;2137;-68
2022/08/04 12:59:06;;;;;;;;;;;;;;;26.35;46.08;95565.59;10254534;28;1933;-67
2022/08/04 13:04:33;;;;;;;;;;;;;;;26.35;46.09;95570.91;10241498;28;1943;-67
2022/08/04 13:09:34;;;;;;;;;;;;;;;26.35;45.99;95557.63;10235975;29;1816;-68
2022/08/04 13:14:36;;;;;;;;;;;;;;;26.35;46.05;95561.06;10236538;28;1907;-67
2022/08/04 13:19:36;;;;;;;;;;;;;;;26.36;46.21;95565.25;10237195;28;1936;-67
2022/08/04 13:24:36;;;;;;;;;;;;;;;26.36;46.19;95557.28;10242293;29;1834;-67
2022/08/04 13:29:38;;;;;;;;;;;;;;;26.37;46.18;95552.75;10254519;28;1827;-68
2022/08/04 13:34:39;;;;;;;;;;;;;;;26.39;46.16;95558.56;10241923;28;1977;-68
2022/08/04 13:39:43;;;;;;;;;;;;;;;26.38;46.37;95557.75;10235072;28;1807;-67
2022/08/04 13:44:46;;;;;;;;;;;;;;;26.39;46.31;95546.03;10232955;28;1941;-67
2022/08/04 13:50:05;;;;;;;;;;;;;;;26.40;46.05;95530.84;10239567;28;1796;-67
2022/08/04 13:55:06;;;;;;;;;;;;;;;26.40;46.24;95534.31;10255135;28;1964;-67
2022/08/04 14:00:08;;;;;;;;;;;;;;;26.41;46.23;95529.78;10235935;28;1775;-68
2022/08/04 14:05:09;;;;;;;;;;;;;;;26.41;46.36;95519.16;10235373;28;1904;-67
2022/08/04 14:10:10;;;;;;;;;;;;;;;26.41;46.36;95514.63;10251200;28;1938;-67
2022/08/04 14:15:28;;;;;;;;;;;;;;;26.41;46.17;95516.50;10238298;28;1978;-67
2022/08/04 14:20:28;;;;;;;;;;;;;;;26.42;46.29;95512.75;10237975;29;1936;-67
2022/08/04 14:25:28;;;;;;;;;;;;;;;26.43;46.30;95507.09;10236654;28;1822;-67
2022/08/04 14:30:29;;;;;;;;;;;;;;;26.42;46.37;95502.13;10238985;28;1751;-68
2022/08/04 14:35:31;;;;;;;;;;;;;;;26.44;46.54;95499.94;10237714;28;1966;-68
2022/08/04 14:40:32;;;;;;;;;;;;;;;26.44;46.27;95510.56;10235429;28;1820;-67
2022/08/04 14:45:33;;;;;;;;;;;;;;;26.44;46.44;95513.22;10237666;28;1861;-67
2022/08/04 14:50:36;;;;;;;;;;;;;;;26.45;46.27;95506.78;10235924;28;1861;-68
2022/08/04 14:55:38;;;;;;;;;;;;;;;26.45;46.22;95496.94;10237765;28;2265;-67
2022/08/04 15:00:38;;;;;;;;;;;;;;;26.45;46.35;95496.94;10237196;28;1795;-67
2022/08/04 15:05:39;;;;;;;;;;;;;;;26.46;46.49;95497.72;10232340;28;2004;-68
2022/08/04 15:10:40;;;;;;;;;;;;;;;26.46;46.37;95500.38;10235262;28;1921;-67
2022/08/04 15:15:41;;;;;;;;;;;;;;;26.46;46.37;95495.06;10238292;28;2206;-68
2022/08/04 15:20:41;;;;;;;;;;;;;;;26.46;46.46;95492.41;10238525;28;1805;-68
2022/08/04 15:25:46;;;;;;;;;;;;;;;26.47;46.31;95491.31;10253566;28;2071;-68
2022/08/04 15:30:46;;;;;;;;;;;;;;;26.46;46.34;95487.84;10236920;28;1986;-68
2022/08/04 15:35:46;;;;;;;;;;;;;;;26.46;46.42;95487.09;10257209;28;1903;-68
2022/08/04 15:40:48;;;;;;;;;;;;;;;26.47;46.42;95478.00;10233985;28;1808;-67
2022/08/04 15:45:49;;;;;;;;;;;;;;;26.47;46.40;95483.31;10232362;28;1892;-68
2022/08/04 15:51:01;;;;;;;;;;;;;;;26.48;46.46;95471.63;10238683;28;1922;-68
2022/08/04 15:56:02;;;;;;;;;;;;;;;26.47;46.46;95467.38;10236075;28;2062;-68
2022/08/04 16:01:02;;;;;;;;;;;;;;;26.49;46.24;95465.19;10239529;28;1814;-67
2022/08/04 16:06:06;;;;;;;;;;;;;;;26.48;46.41;95458.31;10235759;28;1813;-67
2022/08/04 16:11:06;;;;;;;;;;;;;;;26.48;46.42;95456.41;10234614;28;1861;-68
2022/08/04 16:16:07;;;;;;;;;;;;;;;26.48;46.45;95453.75;10229146;28;1974;-68
2022/08/04 16:21:17;;;;;;;;;;;;;;;26.49;46.62;95451.88;10251022;28;1907;-67
2022/08/04 16:26:37;;;;;;;;;;;;;;;26.49;46.44;95449.22;10237944;28;1910;-68
2022/08/04 16:31:38;;;;;;;;;;;;;;;26.49;46.54;95450.03;10243129;28;1813;-68
2022/08/04 16:36:54;;;;;;;;;;;;;;;26.49;46.32;95452.69;10257333;28;1981;-68
2022/08/04 16:41:54;;;;;;;;;;;;;;;26.49;46.38;95446.56;10234344;29;1835;-68
2022/08/04 16:46:58;;;;;;;;;;;;;;;26.49;46.45;95451.88;10241943;28;1788;-67
2022/08/04 16:52:05;;;;;;;;;;;;;;;26.50;46.51;95450.81;10243354;28;2126;-67
2022/08/04 16:57:09;;;;;;;;;;;;;;;26.50;46.53;95440.19;10258866;28;1969;-67
2022/08/04 17:02:09;;;;;;;;;;;;;;;26.51;46.51;95436.41;10241309;28;1774;-67
2022/08/04 17:07:10;;;;;;;;;;;;;;;26.51;46.51;95433.75;10243028;28;1895;-67
2022/08/04 17:12:11;;;;;;;;;;;;;;;26.51;46.57;95436.41;10244090;28;1886;-67
2022/08/04 17:17:11;;;;;;;;;;;;;;;26.51;46.53;95425.78;10247173;28;1975;-68
2022/08/04 17:22:11;;;;;;;;;;;;;;;26.51;46.52;95428.44;10248907;28;1828;-67
2022/08/04 17:27:12;;;;;;;;;;;;;;;26.51;46.54;95431.09;10241267;28;1830;-67
2022/08/04 17:32:16;;;;;;;;;;;;;;;26.53;46.44;95423.56;10244464;28;1909;-67
2022/08/04 17:37:17;;;;;;;;;;;;;;;26.52;46.42;95430.00;10236265;28;1980;-67
2022/08/04 17:42:28;;;;;;;;;;;;;;;26.52;46.62;95416.72;10254014;28;1898;-67
2022/08/04 17:47:29;;;;;;;;;;;;;;;26.52;46.63;95422.03;10238192;28;1843;-67
2022/08/04 17:52:30;;;;;;;;;;;;;;;26.52;46.45;95412.16;10242799;28;1908;-68
2022/08/04 17:57:31;;;;;;;;;;;;;;;26.53;46.56;95416.38;10241686;28;1906;-67
2022/08/04 18:02:32;;;;;;;;;;;;;;;26.54;46.65;95419.84;10250618;28;1967;-67
2022/08/04 18:07:33;;;;;;;;;;;;;;;26.53;46.55;95424.38;10236496;28;1958;-67
2022/08/04 18:12:37;;;;;;;;;;;;;;;26.54;46.57;95425.91;10239746;28;2068;-68
2022/08/04 18:17:38;;;;;;;;;;;;;;;26.54;46.66;95419.84;10240500;28;1973;-68
2022/08/04 18:22:40;;;;;;;;;;;;;;;26.54;46.57;95425.16;10240502;28;1950;-68
2022/08/04 18:27:47;;;;;;;;;;;;;;;26.55;46.50;95416.06;10236343;28;1966;-67
2022/08/04 18:32:48;;;;;;;;;;;;;;;26.55;46.60;95432.78;10235189;28;2255;-67
2022/08/04 18:37:49;;;;;;;;;;;;;;;26.54;46.57;95425.16;10237077;28;2006;-68
2022/08/04 18:42:50;;;;;;;;;;;;;;;26.55;46.62;95427.47;10244617;28;1840;-68
2022/08/04 18:47:50;;;;;;;;;;;;;;;26.56;46.69;95438.91;10241276;28;1944;-68
2022/08/04 18:52:50;;;;;;;;;;;;;;;26.55;46.44;95442.63;10242237;28;1921;-68
2022/08/04 18:57:52;;;;;;;;;;;;;;;26.55;46.68;95450.63;10236826;28;1836;-68
2022/08/04 19:02:52;;;;;;;;;;;;;;;26.56;46.68;95450.28;10235478;28;1840;-68
2022/08/04 19:07:52;;;;;;;;;;;;;;;26.55;46.74;95459.38;10238004;28;1895;-68
2022/08/04 19:12:53;;;;;;;;;;;;;;;26.57;46.69;95462.50;10239364;28;1988;-68
2022/08/04 19:17:53;;;;;;;;;;;;;;;26.57;46.75;95461.72;10236845;28;1892;-68
2022/08/04 19:22:54;;;;;;;;;;;;;;;26.57;46.62;95472.34;10237141;28;1973;-68
2022/08/04 19:27:55;;;;;;;;;;;;;;;26.57;46.61;95473.13;10238859;28;1906;-68
2022/08/04 19:32:56;;;;;;;;;;;;;;;26.57;46.61;95475.00;10236364;28;1968;-68
2022/08/04 19:37:56;;;;;;;;;;;;;;;26.57;46.63;95478.44;10213616;28;1927;-68
2022/08/04 19:42:56;;;;;;;;;;;;;;;26.57;46.53;95477.66;10247305;28;1874;-67
2022/08/04 19:47:57;;;;;;;;;;;;;;;26.58;46.55;95490.63;10232228;28;2139;-67
2022/08/04 19:52:57;;;;;;;;;;;;;;;26.59;46.56;95491.41;10236322;28;1961;-68
2022/08/04 19:58:02;;;;;;;;;;;;;;;26.59;46.59;95488.75;10233524;28;1949;-68
2022/08/04 20:03:02;;;;;;;;;;;;;;;26.59;46.52;95486.88;10248800;28;1890;-68
2022/08/04 20:08:02;;;;;;;;;;;;;;;26.60;46.51;95493.00;10248928;28;1829;-68
2022/08/04 20:13:03;;;;;;;;;;;;;;;26.60;46.59;95496.41;10247781;28;1972;-68
2022/08/04 20:18:04;;;;;;;;;;;;;;;26.61;46.55;95494.53;10245357;28;1863;-68
2022/08/04 20:23:04;;;;;;;;;;;;;;;26.61;46.63;95490.00;10249939;28;1950;-68
2022/08/04 20:28:04;;;;;;;;;;;;;;;26.60;46.61;95488.44;10265806;28;1903;-68
2022/08/04 20:33:05;;;;;;;;;;;;;;;26.62;46.54;95488.13;10247171;28;1922;-67
2022/08/04 20:38:05;;;;;;;;;;;;;;;26.61;46.70;95484.69;10258750;28;1769;-68
2022/08/04 20:43:06;;;;;;;;;;;;;;;26.60;46.51;95480.47;10252377;28;1830;-68
2022/08/04 20:48:06;;;;;;;;;;;;;;;26.61;46.70;95483.91;10246958;28;2001;-68
2022/08/04 20:53:07;;;;;;;;;;;;;;;26.62;46.75;95482.81;10249527;28;1891;-69
2022/08/04 20:58:07;;;;;;;;;;;;;;;26.62;46.72;95488.13;10260648;28;1794;-68
2022/08/04 21:03:08;;;;;;;;;;;;;;;26.61;46.64;95482.03;10249388;28;1803;-68
2022/08/04 21:08:08;;;;;;;;;;;;;;;26.62;46.65;95485.47;10242142;28;1911;-68
2022/08/04 21:13:08;;;;;;;;;;;;;;;26.62;46.61;95490.78;10253457;28;2348;-68
2022/08/04 21:18:09;;;;;;;;;;;;;;;26.62;46.61;95485.47;10257108;28;1840;-68
2022/08/04 21:23:09;;;;;;;;;;;;;;;26.62;46.64;95482.81;10238514;28;1863;-68
2022/08/04 21:28:12;;;;;;;;;;;;;;;26.63;46.76;95484.38;10255726;28;2166;-69
2022/08/04 21:33:12;;;;;;;;;;;;;;;26.63;46.61;95483.59;10247993;29;2020;-69
2022/08/04 21:38:13;;;;;;;;;;;;;;;26.63;46.66;95477.19;10239789;28;2188;-69
2022/08/04 21:43:13;;;;;;;;;;;;;;;26.64;46.58;95472.66;10250848;28;2124;-69
2022/08/04 21:48:14;;;;;;;;;;;;;;;26.65;46.54;95479.50;10239140;28;2179;-69
2022/08/04 21:53:14;;;;;;;;;;;;;;;26.65;46.49;95479.50;10239746;28;1918;-69
2022/08/04 21:58:14;;;;;;;;;;;;;;;26.66;46.50;95488.28;10235819;29;2218;-69
2022/08/04 22:03:14;;;;;;;;;;;;;;;26.65;46.44;95487.47;10256849;28;1857;-69
2022/08/04 22:08:15;;;;;;;;;;;;;;;26.67;46.51;95485.28;10254273;28;2131;-69
2022/08/04 22:13:15;;;;;;;;;;;;;;;26.65;46.57;95484.81;10252332;28;2179;-69
2022/08/04 22:18:16;;;;;;;;;;;;;;;26.67;46.53;95493.25;10236816;28;2236;-69
2022/08/04 22:23:16;;;;;;;;;;;;;;;26.67;46.68;95487.94;10235996;28;1946;-66
2022/08/04 22:28:16;;;;;;;;;;;;;;;26.66;46.51;95481.09;10253193;28;1841;-66
2022/08/04 22:33:18;;;;;;;;;;;;;;;26.67;46.55;95476.56;10238488;28;1911;-67
2022/08/04 22:38:18;;;;;;;;;;;;;;;26.66;46.62;95481.09;10235593;28;1811;-68
2022/08/04 22:43:19;;;;;;;;;;;;;;;26.66;46.62;95465.13;10232258;28;1864;-68
2022/08/04 22:48:20;;;;;;;;;;;;;;;26.68;46.50;95467.47;10237290;28;1826;-66
2022/08/04 22:53:20;;;;;;;;;;;;;;;26.66;46.63;95470.44;10237991;29;1914;-67
2022/08/04 22:58:20;;;;;;;;;;;;;;;26.67;46.51;95479.97;10257745;28;1859;-68
2022/08/04 23:03:21;;;;;;;;;;;;;;;26.66;46.41;95482.94;10235186;28;1884;-68
2022/08/04 23:08:21;;;;;;;;;;;;;;;26.67;46.37;95476.56;10254113;28;1858;-68
2022/08/04 23:13:21;;;;;;;;;;;;;;;26.66;46.51;95478.41;10235140;28;1978;-68
2022/08/04 23:18:22;;;;;;;;;;;;;;;26.67;46.35;95474.66;10237736;28;1885;-68
2022/08/04 23:23:25;;;;;;;;;;;;;;;26.68;46.51;95480.75;10230483;28;1822;-67
2022/08/04 23:28:25;;;;;;;;;;;;;;;26.67;46.50;95474.66;10234444;28;1947;-67
2022/08/04 23:33:26;;;;;;;;;;;;;;;26.67;46.36;95463.25;10230885;28;1978;-67
2022/08/04 23:38:26;;;;;;;;;;;;;;;26.68;46.48;95464.81;10232896;28;1855;-67
2022/08/04 23:43:26;;;;;;;;;;;;;;;26.68;46.57;95460.28;10250116;28;1849;-67
2022/08/04 23:48:26;;;;;;;;;;;;;;;26.68;46.41;95456.81;10235876;28;1831;-67
2022/08/04 23:53:27;;;;;;;;;;;;;;;26.68;46.30;95444.31;10249950;28;1926;-67
2022/08/04 23:58:27;;;;;;;;;;;;;;;26.68;46.50;95449.63;10254276;28;1783;-68
